createdAt,value
2019-02-23T00:00:09.024Z,32.65
2019-02-23T00:02:37.541Z,31.90
2019-02-23T00:05:07.490Z,31.87
2019-02-23T00:07:35.986Z,32.28
2019-02-23T00:10:06.672Z,32.48
2019-02-23T00:12:35.500Z,33.33
2019-02-23T00:15:05.898Z,33.18
2019-02-23T00:17:35.940Z,33.98
2019-02-23T00:20:06.725Z,33.48
2019-02-23T00:22:35.187Z,31.30
2019-02-23T00:25:03.656Z,32.95
2019-02-23T00:27:34.875Z,33.85
2019-02-23T00:30:04.487Z,31.45
2019-02-23T00:32:33.283Z,31.93
2019-02-23T00:35:02.097Z,34.05
2019-02-23T00:37:30.960Z,33.53
2019-02-23T00:39:59.414Z,33.60
2019-02-23T00:42:27.888Z,31.70
2019-02-23T00:44:56.333Z,32.55
2019-02-23T00:47:25.049Z,30.57
2019-02-23T00:49:55.007Z,32.20
2019-02-23T00:52:24.572Z,31.27
2019-02-23T00:54:54.552Z,33.35
2019-02-23T00:57:23.402Z,33.00
2019-02-23T00:59:51.908Z,33.83
2019-02-23T01:02:20.352Z,31.85
2019-02-23T01:04:48.931Z,32.50
2019-02-23T01:07:17.512Z,32.40
2019-02-23T01:09:46.263Z,31.52
2019-02-23T01:12:17.966Z,33.00
2019-02-23T01:14:46.430Z,31.95
2019-02-23T01:17:15.182Z,34.78
2019-02-23T01:19:47.661Z,31.97
2019-02-23T01:22:14.708Z,31.87
2019-02-23T01:24:43.176Z,31.00
2019-02-23T01:27:12.948Z,30.70
2019-02-23T01:29:41.402Z,30.23
2019-02-23T01:32:10.420Z,30.82
2019-02-23T01:34:39.192Z,32.50
2019-02-23T01:37:07.973Z,31.12
2019-02-23T01:39:36.518Z,30.02
2019-02-23T01:42:06.123Z,30.02
2019-02-23T01:44:34.875Z,28.77
2019-02-23T01:47:03.372Z,29.00
2019-02-23T01:49:33.534Z,31.02
2019-02-23T01:52:02.229Z,30.23
2019-02-23T01:54:30.840Z,30.97
2019-02-23T01:56:59.625Z,29.35
2019-02-23T01:59:28.090Z,32.20
2019-02-23T02:01:56.555Z,27.65
2019-02-23T02:04:25.477Z,30.65
2019-02-23T02:06:54.005Z,28.93
2019-02-23T02:09:22.865Z,28.57
2019-02-23T02:11:51.634Z,28.87
2019-02-23T02:14:20.413Z,29.30
2019-02-23T02:16:52.449Z,29.53
2019-02-23T02:19:21.176Z,29.50
2019-02-23T02:21:51.476Z,28.02
2019-02-23T02:24:20.197Z,29.67
2019-02-23T02:26:48.940Z,28.55
2019-02-23T02:29:17.667Z,27.75
2019-02-23T02:31:46.440Z,29.27
2019-02-23T02:34:15.841Z,28.30
2019-02-23T02:36:46.280Z,32.67
2019-02-23T02:39:15.145Z,30.83
2019-02-23T02:41:44.009Z,33.33
2019-02-23T02:44:13.065Z,31.93
2019-02-23T02:46:41.778Z,34.03
2019-02-23T02:49:10.929Z,31.75
2019-02-23T02:51:39.373Z,29.67
2019-02-23T02:54:08.286Z,31.05
2019-02-23T02:56:37.187Z,31.23
2019-02-23T02:59:05.658Z,31.63
2019-02-23T03:01:34.133Z,33.07
2019-02-23T03:04:02.606Z,33.73
2019-02-23T03:06:31.058Z,33.87
2019-02-23T03:08:59.501Z,31.73
2019-02-23T03:11:29.787Z,33.93
2019-02-23T03:13:58.509Z,34.53
2019-02-23T03:16:27.275Z,32.80
2019-02-23T03:18:56.106Z,34.67
2019-02-23T03:21:24.840Z,33.93
2019-02-23T03:23:53.834Z,32.60
2019-02-23T03:26:22.305Z,31.17
2019-02-23T03:28:53.833Z,30.48
2019-02-23T03:31:24.823Z,31.70
2019-02-23T03:33:55.920Z,31.83
2019-02-23T03:36:24.781Z,31.30
2019-02-23T03:38:54.778Z,31.17
2019-02-23T03:41:23.508Z,32.23
2019-02-23T03:43:52.352Z,31.70
2019-02-23T03:46:20.876Z,30.37
2019-02-23T03:48:51.226Z,31.23
2019-02-23T03:51:19.919Z,31.53
2019-02-23T03:53:48.732Z,31.40
2019-02-23T03:56:17.508Z,31.37
2019-02-23T03:58:46.578Z,30.52
2019-02-23T04:01:15.386Z,30.17
2019-02-23T04:03:43.832Z,31.25
2019-02-23T04:06:12.312Z,30.60
2019-02-23T04:08:41.114Z,31.07
2019-02-23T04:11:09.704Z,30.07
2019-02-23T04:13:38.555Z,33.20
2019-02-23T04:16:07.270Z,31.30
2019-02-23T04:18:36.069Z,31.50
2019-02-23T04:21:04.561Z,31.97
2019-02-23T04:23:33.018Z,30.83
2019-02-23T04:26:04.974Z,29.90
2019-02-23T04:28:35.123Z,30.70
2019-02-23T04:31:03.648Z,29.63
2019-02-23T04:33:32.113Z,29.80
2019-02-23T04:36:00.967Z,28.95
2019-02-23T04:38:29.754Z,28.70
2019-02-23T04:40:58.200Z,30.80
2019-02-23T04:43:27.000Z,28.03
2019-02-23T04:45:55.732Z,28.43
2019-02-23T04:48:25.546Z,28.03
2019-02-23T04:50:54.039Z,29.37
2019-02-23T04:53:22.495Z,26.70
2019-02-23T04:55:51.219Z,28.97
2019-02-23T04:58:19.676Z,29.10
2019-02-23T05:00:48.128Z,30.03
2019-02-23T05:03:16.900Z,30.20
2019-02-23T05:05:45.372Z,29.23
2019-02-23T05:08:13.828Z,29.00
2019-02-23T05:10:42.556Z,28.57
2019-02-23T05:13:11.022Z,27.90
2019-02-23T05:15:39.776Z,27.80
2019-02-23T05:18:08.560Z,28.83
2019-02-23T05:20:37.048Z,30.08
2019-02-23T05:23:05.519Z,26.23
2019-02-23T05:25:34.026Z,27.32
2019-02-23T05:28:02.584Z,27.53
2019-02-23T05:30:31.034Z,27.77
2019-02-23T05:32:59.472Z,27.23
2019-02-23T05:35:27.972Z,26.30
2019-02-23T05:37:56.693Z,28.10
2019-02-23T05:40:25.167Z,28.07
2019-02-23T05:43:01.100Z,28.63
2019-02-23T05:45:23.908Z,27.87
2019-02-23T05:47:52.428Z,25.77
2019-02-23T05:50:21.153Z,27.13
2019-02-23T05:52:49.988Z,26.77
2019-02-23T05:55:18.514Z,28.73
2019-02-23T05:57:48.855Z,27.50
2019-02-23T06:00:17.644Z,27.60
2019-02-23T06:02:46.144Z,28.60
2019-02-23T06:05:14.615Z,27.63
2019-02-23T06:07:43.148Z,28.47
2019-02-23T06:10:12.920Z,28.47
2019-02-23T06:12:41.899Z,25.93
2019-02-23T06:15:12.258Z,29.80
2019-02-23T06:17:40.991Z,28.37
2019-02-23T06:20:09.782Z,28.23
2019-02-23T06:22:38.245Z,27.20
2019-02-23T06:25:08.231Z,28.07
2019-02-23T06:27:36.664Z,27.73
2019-02-23T06:30:09.249Z,27.33
2019-02-23T06:32:37.722Z,27.17
2019-02-23T06:35:08.560Z,27.63
2019-02-23T06:37:37.091Z,26.97
2019-02-23T06:40:10.772Z,27.40
2019-02-23T06:42:40.529Z,27.87
2019-02-23T06:45:13.644Z,28.80
2019-02-23T06:47:42.135Z,28.80
2019-02-23T06:50:10.681Z,26.90
2019-02-23T06:52:39.410Z,28.37
2019-02-23T06:55:08.321Z,28.40
2019-02-23T06:57:36.770Z,27.53
2019-02-23T07:00:08.601Z,27.07
2019-02-23T07:02:37.051Z,26.70
2019-02-23T07:05:05.773Z,28.17
2019-02-23T07:07:34.497Z,27.27
2019-02-23T07:10:03.657Z,26.60
2019-02-23T07:12:32.405Z,28.33
2019-02-23T07:15:01.757Z,27.83
2019-02-23T07:17:30.261Z,26.63
2019-02-23T07:19:58.965Z,27.07
2019-02-23T07:22:27.428Z,27.23
2019-02-23T07:24:57.505Z,25.80
2019-02-23T07:27:26.397Z,24.10
2019-02-23T07:29:55.173Z,20.87
2019-02-23T07:32:24.325Z,21.48
2019-02-23T07:34:52.849Z,21.35
2019-02-23T07:37:21.629Z,22.27
2019-02-23T07:39:50.444Z,21.62
2019-02-23T07:42:19.252Z,20.27
2019-02-23T07:44:51.009Z,20.45
2019-02-23T07:47:19.770Z,20.65
2019-02-23T07:49:48.241Z,19.65
2019-02-23T07:52:26.020Z,19.52
2019-02-23T07:54:48.515Z,20.15
2019-02-23T07:57:17.356Z,21.15
2019-02-23T07:59:46.061Z,19.90
2019-02-23T08:02:14.767Z,20.65
2019-02-23T08:04:44.008Z,19.05
2019-02-23T08:07:12.529Z,18.48
2019-02-23T08:09:42.879Z,19.12
2019-02-23T08:12:14.725Z,17.82
2019-02-23T08:14:44.074Z,18.35
2019-02-23T08:17:14.059Z,19.75
2019-02-23T08:19:42.946Z,17.95
2019-02-23T08:22:13.136Z,19.37
2019-02-23T08:24:41.649Z,18.12
2019-02-23T08:27:11.837Z,17.90
2019-02-23T08:29:40.289Z,13.05
2019-02-23T08:32:08.733Z,18.40
2019-02-23T08:34:37.292Z,17.35
2019-02-23T08:37:06.157Z,14.68
2019-02-23T08:39:37.495Z,17.62
2019-02-23T08:42:06.409Z,16.37
2019-02-23T08:44:34.872Z,16.25
2019-02-23T08:47:04.795Z,15.13
2019-02-23T08:49:33.342Z,14.53
2019-02-23T08:52:02.075Z,14.95
2019-02-23T08:54:31.682Z,16.23
2019-02-23T08:57:02.278Z,14.15
2019-02-23T08:59:32.194Z,15.10
2019-02-23T09:02:01.935Z,14.75
2019-02-23T09:04:30.416Z,14.55
2019-02-23T09:06:58.912Z,10.35
2019-02-23T09:09:27.431Z,13.85
2019-02-23T09:11:55.954Z,15.32
2019-02-23T09:14:24.756Z,13.62
2019-02-23T09:16:53.558Z,13.53
2019-02-23T09:19:22.357Z,14.20
2019-02-23T09:21:51.170Z,15.05
2019-02-23T09:24:20.374Z,13.80
2019-02-23T09:26:49.172Z,14.55
2019-02-23T09:29:17.944Z,15.30
2019-02-23T09:31:46.411Z,15.00
2019-02-23T09:34:16.412Z,14.98
2019-02-23T09:36:46.320Z,14.18
2019-02-23T09:39:15.355Z,15.08
2019-02-23T09:41:43.816Z,14.87
2019-02-23T09:44:13.738Z,13.62
2019-02-23T09:46:42.504Z,14.35
2019-02-23T09:49:11.329Z,15.38
2019-02-23T09:51:40.031Z,14.23
2019-02-23T09:54:08.584Z,13.85
2019-02-23T09:56:37.365Z,13.88
2019-02-23T09:59:05.813Z,14.40
2019-02-23T10:01:34.654Z,12.78
2019-02-23T10:04:06.152Z,13.60
2019-02-23T10:06:34.874Z,13.75
2019-02-23T10:09:03.867Z,13.30
2019-02-23T10:11:33.817Z,13.03
2019-02-23T10:14:02.302Z,14.15
2019-02-23T10:16:31.121Z,13.80
2019-02-23T10:18:59.844Z,14.20
2019-02-23T10:21:28.573Z,13.90
2019-02-23T10:23:57.024Z,13.18
2019-02-23T10:26:25.726Z,12.47
2019-02-23T10:28:54.228Z,13.62
2019-02-23T10:31:22.951Z,13.10
2019-02-23T10:33:51.634Z,12.98
2019-02-23T10:36:20.116Z,13.25
2019-02-23T10:38:48.560Z,12.50
2019-02-23T10:41:17.019Z,12.03
2019-02-23T10:43:46.920Z,12.03
2019-02-23T10:46:15.712Z,12.18
2019-02-23T10:48:45.740Z,12.47
2019-02-23T10:51:16.130Z,12.20
2019-02-23T10:53:45.714Z,12.88
2019-02-23T10:56:14.457Z,12.15
2019-02-23T10:58:42.915Z,12.40
2019-02-23T11:01:11.447Z,12.95
2019-02-23T11:03:40.810Z,11.93
2019-02-23T11:06:09.984Z,12.58
2019-02-23T11:08:38.878Z,11.90
2019-02-23T11:11:08.378Z,12.03
2019-02-23T11:13:36.886Z,13.15
2019-02-23T11:16:06.563Z,11.88
2019-02-23T11:18:35.455Z,12.18
2019-02-23T11:21:04.396Z,11.75
2019-02-23T11:23:43.796Z,12.03
2019-02-23T11:26:13.473Z,11.88
2019-02-23T11:28:45.039Z,11.10
2019-02-23T11:31:14.707Z,11.08
2019-02-23T11:33:43.256Z,10.95
2019-02-23T11:36:13.761Z,9.80
2019-02-23T11:38:42.258Z,10.13
2019-02-23T11:41:10.790Z,10.55
2019-02-23T11:43:41.842Z,11.20
2019-02-23T11:46:10.364Z,10.45
2019-02-23T11:48:39.087Z,11.73
2019-02-23T11:51:07.855Z,11.28
2019-02-23T11:53:36.762Z,10.32
2019-02-23T11:56:05.356Z,11.43
2019-02-23T11:58:34.100Z,10.60
2019-02-23T12:01:02.847Z,11.63
2019-02-23T12:03:31.624Z,11.30
2019-02-23T12:06:03.033Z,10.95
2019-02-23T12:08:31.577Z,11.00
2019-02-23T12:11:00.773Z,10.08
2019-02-23T12:13:29.333Z,10.60
2019-02-23T12:15:58.255Z,11.12
2019-02-23T12:18:28.396Z,10.53
2019-02-23T12:20:57.131Z,10.98
2019-02-23T12:23:25.941Z,9.95
2019-02-23T12:25:56.251Z,11.20
2019-02-23T12:28:27.784Z,10.78
2019-02-23T12:30:56.621Z,10.82
2019-02-23T12:33:25.484Z,11.40
2019-02-23T12:35:54.038Z,11.30
2019-02-23T12:38:22.772Z,10.85
2019-02-23T12:40:51.447Z,10.03
2019-02-23T12:43:19.930Z,10.10
2019-02-23T12:45:48.629Z,9.73
2019-02-23T12:48:19.803Z,10.68
2019-02-23T12:50:48.392Z,10.78
2019-02-23T12:53:17.841Z,9.85
2019-02-23T12:55:46.405Z,10.28
2019-02-23T12:58:16.475Z,10.08
2019-02-23T13:00:45.722Z,9.48
2019-02-23T13:03:14.713Z,11.10
2019-02-23T13:05:45.975Z,10.08
2019-02-23T13:08:14.492Z,9.83
2019-02-23T13:10:43.107Z,9.48
2019-02-23T13:13:31.382Z,9.93
2019-02-23T13:16:07.633Z,10.72
2019-02-23T13:18:56.016Z,10.18
2019-02-23T13:21:30.487Z,9.93
2019-02-23T13:24:28.249Z,9.80
2019-02-23T13:27:10.075Z,9.85
2019-02-23T13:30:04.158Z,9.20
2019-02-23T13:32:58.443Z,9.68
2019-02-23T13:35:38.541Z,9.75
2019-02-23T13:38:29.493Z,9.65
2019-02-23T13:41:07.587Z,10.32
2019-02-23T13:44:07.961Z,10.15
2019-02-23T13:46:51.663Z,9.35
2019-02-23T13:49:35.258Z,9.50
2019-02-23T13:52:12.795Z,9.98
2019-02-23T13:55:06.395Z,9.55
2019-02-23T13:57:50.363Z,9.80
2019-02-23T14:00:44.655Z,9.73
2019-02-23T14:03:33.086Z,10.08
2019-02-23T14:06:20.035Z,8.98
2019-02-23T14:09:11.465Z,8.73
2019-02-23T14:11:53.429Z,10.15
2019-02-23T14:14:39.961Z,9.60
2019-02-23T14:17:20.391Z,9.75
2019-02-23T14:20:10.361Z,9.60
2019-02-23T14:23:04.841Z,8.70
2019-02-23T14:25:45.099Z,10.03
2019-02-23T14:28:38.074Z,9.30
2019-02-23T14:31:12.347Z,8.98
2019-02-23T14:33:55.759Z,9.75
2019-02-23T14:36:52.879Z,8.45
2019-02-23T14:39:30.512Z,9.08
2019-02-23T14:42:10.932Z,9.10
2019-02-23T14:44:42.996Z,9.23
2019-02-23T14:47:16.484Z,8.90
2019-02-23T14:49:50.975Z,9.88
2019-02-23T14:52:48.372Z,9.50
2019-02-23T14:55:24.258Z,10.28
2019-02-23T14:58:21.600Z,10.65
2019-02-23T15:00:56.108Z,9.18
2019-02-23T15:04:04.606Z,9.53
2019-02-23T15:06:42.672Z,10.80
2019-02-23T15:09:48.164Z,9.90
2019-02-23T15:12:29.133Z,10.08
2019-02-23T15:15:18.705Z,9.98
2019-02-23T15:18:10.598Z,10.50
2019-02-23T15:21:04.332Z,9.78
2019-02-23T15:23:50.487Z,10.58
2019-02-23T15:26:41.758Z,9.70
2019-02-23T15:29:16.485Z,11.83
2019-02-23T15:32:24.089Z,11.33
2019-02-23T15:35:07.682Z,12.43
2019-02-23T15:37:45.033Z,10.38
2019-02-23T15:40:22.763Z,9.10
2019-02-23T15:43:26.450Z,11.20
2019-02-23T15:46:27.032Z,9.58
2019-02-23T15:49:29.852Z,10.55
2019-02-23T15:52:00.093Z,13.70
2019-02-23T15:54:29.327Z,11.57
2019-02-23T15:56:58.938Z,13.70
2019-02-23T15:59:30.332Z,12.40
2019-02-23T16:01:59.110Z,11.25
2019-02-23T16:04:29.061Z,11.48
2019-02-23T16:06:57.839Z,12.18
2019-02-23T16:09:26.321Z,12.43
2019-02-23T16:11:55.009Z,12.80
2019-02-23T16:14:23.557Z,12.80
2019-02-23T16:16:52.397Z,10.82
2019-02-23T16:19:21.170Z,10.65
2019-02-23T16:21:52.841Z,13.05
2019-02-23T16:24:20.421Z,11.10
2019-02-23T16:26:49.195Z,11.08
2019-02-23T16:29:22.641Z,11.18
2019-02-23T16:31:51.480Z,11.57
2019-02-23T16:34:20.662Z,12.58
2019-02-23T16:36:50.445Z,11.78
2019-02-23T16:39:19.265Z,12.05
2019-02-23T16:41:47.989Z,11.70
2019-02-23T16:44:26.840Z,11.55
2019-02-23T16:47:00.299Z,12.45
2019-02-23T16:49:28.980Z,12.40
2019-02-23T16:51:57.924Z,15.45
2019-02-23T16:54:26.407Z,11.45
2019-02-23T16:56:57.545Z,12.03
2019-02-23T16:59:28.709Z,11.65
2019-02-23T17:01:57.898Z,11.85
2019-02-23T17:04:26.624Z,13.22
2019-02-23T17:06:55.702Z,12.53
2019-02-23T17:09:25.670Z,12.37
2019-02-23T17:11:54.473Z,11.93
2019-02-23T17:14:23.265Z,11.50
2019-02-23T17:16:52.155Z,12.00
2019-02-23T17:19:20.606Z,12.95
2019-02-23T17:21:49.155Z,12.98
2019-02-23T17:24:17.649Z,13.40
2019-02-23T17:26:46.470Z,13.18
2019-02-23T17:29:14.934Z,13.45
2019-02-23T17:31:43.407Z,14.87
2019-02-23T17:34:12.625Z,11.97
2019-02-23T17:36:41.370Z,12.33
2019-02-23T17:39:10.667Z,11.85
2019-02-23T17:41:39.169Z,13.48
2019-02-23T17:44:07.930Z,14.53
2019-02-23T17:46:38.218Z,13.53
2019-02-23T17:49:08.565Z,11.80
2019-02-23T17:51:37.033Z,13.03
2019-02-23T17:54:05.759Z,13.30
2019-02-23T17:56:34.311Z,11.50
2019-02-23T17:59:02.885Z,12.50
2019-02-23T18:01:32.548Z,14.45
2019-02-23T18:04:01.000Z,13.18
2019-02-23T18:06:30.987Z,16.42
2019-02-23T18:09:01.173Z,13.40
2019-02-23T18:11:29.802Z,14.50
2019-02-23T18:13:58.658Z,14.30
2019-02-23T18:16:27.105Z,12.93
2019-02-23T18:18:57.564Z,12.37
2019-02-23T18:21:28.925Z,13.43
2019-02-23T18:23:57.370Z,12.37
2019-02-23T18:26:25.893Z,12.63
2019-02-23T18:28:54.387Z,12.73
2019-02-23T18:31:22.921Z,13.30
2019-02-23T18:33:51.730Z,13.53
2019-02-23T18:36:20.343Z,14.13
2019-02-23T18:38:49.120Z,13.48
2019-02-23T18:41:17.895Z,13.00
2019-02-23T18:43:46.409Z,12.82
2019-02-23T18:46:14.860Z,14.10
2019-02-23T18:48:43.449Z,13.28
2019-02-23T18:51:11.960Z,12.40
2019-02-23T18:53:40.405Z,14.63
2019-02-23T18:56:08.854Z,13.85
2019-02-23T18:58:37.363Z,12.78
2019-02-23T19:01:07.024Z,12.78
2019-02-23T19:03:35.915Z,22.02
2019-02-23T19:06:04.431Z,18.92
2019-02-23T19:08:32.885Z,22.62
2019-02-23T19:11:01.691Z,13.43
2019-02-23T19:13:30.567Z,14.70
2019-02-23T19:15:59.356Z,15.30
2019-02-23T19:18:27.802Z,14.65
2019-02-23T19:20:56.286Z,14.87
2019-02-23T19:23:24.750Z,13.55
2019-02-23T19:25:53.294Z,13.28
2019-02-23T19:28:24.697Z,13.48
2019-02-23T19:30:53.640Z,13.13
2019-02-23T19:33:22.533Z,13.78
2019-02-23T19:35:51.327Z,13.85
2019-02-23T19:38:19.771Z,13.78
2019-02-23T19:40:48.527Z,12.68
2019-02-23T19:43:17.274Z,13.05
2019-02-23T19:45:45.761Z,13.55
2019-02-23T19:48:14.850Z,11.68
2019-02-23T19:50:46.696Z,12.82
2019-02-23T19:53:15.209Z,13.50
2019-02-23T19:55:44.923Z,13.25
2019-02-23T19:58:13.377Z,12.45
2019-02-23T20:00:41.902Z,12.58
2019-02-23T20:03:11.763Z,12.93
2019-02-23T20:05:40.650Z,13.40
2019-02-23T20:08:09.168Z,13.20
2019-02-23T20:10:37.997Z,13.43
2019-02-23T20:13:06.509Z,8.95
2019-02-23T20:15:34.955Z,12.07
2019-02-23T20:18:03.467Z,10.95
2019-02-23T20:20:32.232Z,11.55
2019-02-23T20:23:00.708Z,12.50
2019-02-23T20:25:29.225Z,12.25
2019-02-23T20:27:58.622Z,13.18
2019-02-23T20:30:27.252Z,11.53
2019-02-23T20:32:57.244Z,12.68
2019-02-23T20:35:26.072Z,11.97
2019-02-23T20:37:54.814Z,10.18
2019-02-23T20:40:23.304Z,12.10
2019-02-23T20:42:52.032Z,12.67
2019-02-23T20:45:20.802Z,10.70
2019-02-23T20:47:50.839Z,11.97
2019-02-23T20:50:21.990Z,11.33
2019-02-23T20:52:52.297Z,11.40
2019-02-23T20:55:21.107Z,11.75
2019-02-23T20:57:51.964Z,13.38
2019-02-23T21:00:20.455Z,12.45
2019-02-23T21:02:52.725Z,12.78
2019-02-23T21:05:21.248Z,12.68
2019-02-23T21:07:51.476Z,11.85
2019-02-23T21:10:20.345Z,12.05
2019-02-23T21:12:50.116Z,11.10
2019-02-23T21:15:18.668Z,13.20
2019-02-23T21:17:47.184Z,11.43
2019-02-23T21:20:16.668Z,12.30
2019-02-23T21:22:45.225Z,10.20
2019-02-23T21:25:13.684Z,11.13
2019-02-23T21:27:42.522Z,11.70
2019-02-23T21:30:11.798Z,11.30
2019-02-23T21:32:43.186Z,10.97
2019-02-23T21:35:11.681Z,11.20
2019-02-23T21:37:40.241Z,11.33
2019-02-23T21:40:11.967Z,9.93
2019-02-23T21:42:40.153Z,10.60
2019-02-23T21:45:10.633Z,11.20
2019-02-23T21:47:39.438Z,11.25
2019-02-23T21:50:09.882Z,11.03
2019-02-23T21:52:38.384Z,10.73
2019-02-23T21:55:06.999Z,10.93
2019-02-23T21:57:35.747Z,11.83
2019-02-23T22:00:06.458Z,12.07
2019-02-23T22:02:34.960Z,10.10
2019-02-23T22:05:11.946Z,10.43
2019-02-23T22:07:34.402Z,11.83
2019-02-23T22:10:02.855Z,10.13
2019-02-23T22:12:31.418Z,11.80
2019-02-23T22:15:01.204Z,12.00
2019-02-23T22:17:30.013Z,10.43
2019-02-23T22:19:58.491Z,10.97
2019-02-23T22:22:26.969Z,11.17
2019-02-23T22:24:55.450Z,10.97
2019-02-23T22:27:31.194Z,11.50
2019-02-23T22:29:54.449Z,11.90
2019-02-23T22:32:23.241Z,11.60
2019-02-23T22:34:51.685Z,11.00
2019-02-23T22:37:20.499Z,10.63
2019-02-23T22:39:49.316Z,11.37
2019-02-23T22:42:20.039Z,12.40
2019-02-23T22:44:48.420Z,11.47
2019-02-23T22:47:17.733Z,11.33
2019-02-23T22:49:46.217Z,12.27
2019-02-23T22:52:14.853Z,10.70
2019-02-23T22:54:43.653Z,11.03
2019-02-23T22:57:12.429Z,11.00
2019-02-23T22:59:42.465Z,12.60
2019-02-23T23:02:11.343Z,11.20
2019-02-23T23:04:40.145Z,11.70
2019-02-23T23:07:10.557Z,12.07
2019-02-23T23:09:39.018Z,12.00
2019-02-23T23:12:07.529Z,11.07
2019-02-23T23:14:38.265Z,12.17
2019-02-23T23:17:06.802Z,11.83
2019-02-23T23:19:35.586Z,12.10
2019-02-23T23:22:04.463Z,11.27
2019-02-23T23:24:33.237Z,11.43
2019-02-23T23:27:01.943Z,12.67
2019-02-23T23:29:30.425Z,11.30
2019-02-23T23:31:59.042Z,10.67
2019-02-23T23:34:27.493Z,11.23
2019-02-23T23:36:56.053Z,11.57
2019-02-23T23:39:24.509Z,9.40
2019-02-23T23:41:53.019Z,10.40
2019-02-23T23:44:22.876Z,10.43
2019-02-23T23:46:52.859Z,11.60
2019-02-23T23:49:21.408Z,9.87
2019-02-23T23:51:49.969Z,10.47
2019-02-23T23:54:18.525Z,11.00
